Time;durP1;ratioP1;P1;durP2;ratioP2;P2;SDS_P1;SDS_P2;PMS_P1;PMS_P2;Temp;Humidity;BMP_temperature;BMP_pressure;BME280_temperature;BME280_humidity;BME280_pressure;Samples;Min_cycle;Max_cycle;Signal;HPM_P1;HPM_P2
2022/12/03 00:00:17;;;;;;;26.60;16.20;;;;;;;-143.84;92.01;45290.91;5112538;28;20439;-77
2022/12/03 00:02:44;;;;;;;32.47;18.13;;;;;;;-143.84;92.09;45279.47;5112379;28;20443;-77
2022/12/03 00:05:12;;;;;;;29.40;16.50;;;;;;;-143.84;91.68;45306.13;5112750;28;20435;-77
2022/12/03 00:07:39;;;;;;;31.10;17.20;;;;;;;-143.84;91.47;45287.09;5112777;28;20863;-76
2022/12/03 00:10:08;;;;;;;31.70;16.97;;;;;;;-143.84;91.66;45325.19;5113031;28;20492;-77
2022/12/03 00:12:35;;;;;;;30.10;17.53;;;;;;;-143.84;91.34;45290.91;5112963;28;20443;-77
2022/12/03 00:15:02;;;;;;;26.73;16.50;;;;;;;-143.84;91.75;45309.94;5112471;28;20491;-77
2022/12/03 00:17:30;;;;;;;30.97;17.70;;;;;;;-143.84;91.66;45287.09;5111910;28;20966;-77
2022/12/03 00:19:57;;;;;;;34.10;17.30;;;;;;;-143.84;91.77;45298.53;5112825;28;20893;-77
2022/12/03 00:22:25;;;;;;;32.37;17.10;;;;;;;-143.84;91.58;45302.34;5112307;28;20423;-77
2022/12/03 00:24:52;;;;;;;29.20;17.93;;;;;;;-143.84;91.63;45271.88;5112219;28;20458;-77
2022/12/03 00:27:19;;;;;;;33.87;19.50;;;;;;;-143.84;91.56;45273.78;5111175;28;20482;-77
2022/12/03 00:29:46;;;;;;;27.00;15.90;;;;;;;-143.84;91.68;45266.16;5111216;28;20427;-77
2022/12/03 00:32:14;;;;;;;34.43;17.00;;;;;;;-143.84;91.71;45300.44;5112196;28;20431;-77
2022/12/03 00:34:42;;;;;;;32.90;17.13;;;;;;;-143.84;91.91;45277.56;5111866;28;20522;-77
2022/12/03 00:37:09;;;;;;;25.27;15.87;;;;;;;-143.84;91.83;45296.63;5111848;28;20435;-77
2022/12/03 00:39:36;;;;;;;35.23;17.53;;;;;;;-143.84;91.50;45268.06;5112357;28;20443;-77
2022/12/03 00:42:04;;;;;;;28.10;16.30;;;;;;;-143.84;91.44;45269.97;5112411;28;20427;-77
2022/12/03 00:44:31;;;;;;;27.50;15.63;;;;;;;-143.84;91.77;45319.47;5112184;28;20427;-77
2022/12/03 00:46:58;;;;;;;24.57;14.90;;;;;;;-143.84;91.80;45298.53;5111879;28;21002;-77
2022/12/03 00:49:25;;;;;;;31.33;16.20;;;;;;;-143.84;91.83;45273.78;5111810;28;21021;-77
2022/12/03 00:51:53;;;;;;;31.33;17.43;;;;;;;-143.84;91.92;45283.28;5111796;28;20438;-77
2022/12/03 00:54:21;;;;;;;29.07;15.80;;;;;;;-143.84;92.00;45260.44;5112190;28;20439;-77
2022/12/03 00:56:48;;;;;;;24.70;13.80;;;;;;;-143.84;91.91;45281.38;5111922;28;20503;-77
2022/12/03 00:59:15;;;;;;;29.63;16.43;;;;;;;-143.84;91.95;45277.56;5112056;28;20519;-77
2022/12/03 01:01:42;;;;;;;25.40;14.33;;;;;;;-143.84;91.70;45289.00;5111911;28;20491;-77
2022/12/03 01:04:09;;;;;;;32.60;17.23;;;;;;;-143.84;91.93;45315.66;5111589;28;20846;-77
2022/12/03 01:06:36;;;;;;;33.40;18.43;;;;;;;-143.84;91.59;45300.44;5111603;28;21010;-77
2022/12/03 01:09:05;;;;;;;34.50;16.43;;;;;;;-143.84;91.38;45283.28;5111847;28;20606;-77
2022/12/03 01:11:38;;;;;;;25.50;14.80;;;;;;;-143.84;91.75;45281.38;5112323;28;20491;-77
2022/12/03 01:14:06;;;;;;;26.80;15.40;;;;;;;-143.84;91.72;45292.81;5111715;28;20853;-77
2022/12/03 01:16:33;;;;;;;26.43;14.07;;;;;;;-143.84;91.77;45268.06;5111575;28;20438;-77
2022/12/03 01:19:00;;;;;;;27.30;15.10;;;;;;;-143.84;91.71;45277.56;5111630;28;20830;-77
2022/12/03 01:21:27;;;;;;;30.17;16.30;;;;;;;-143.84;91.38;45281.38;5111446;28;20496;-77
2022/12/03 01:23:54;;;;;;;26.47;13.90;;;;;;;-143.84;91.49;45289.00;5111134;28;20448;-77
2022/12/03 01:26:24;;;;;;;24.93;14.63;;;;;;;-143.84;91.32;45292.81;5111200;28;20475;-77
2022/12/03 01:28:51;;;;;;;27.30;14.53;;;;;;;-143.84;91.60;45266.16;5111551;28;21074;-77
2022/12/03 01:34:03;;;;;;;25.83;14.07;;;;;;;-143.84;91.23;45287.09;5111661;28;20406;-77
2022/12/03 01:36:30;;;;;;;24.40;13.53;;;;;;;-143.84;91.15;45281.38;5111141;28;20446;-77
2022/12/03 01:38:57;;;;;;;30.00;15.17;;;;;;;-143.84;91.35;45308.03;5111461;28;20446;-77
2022/12/03 01:41:26;;;;;;;24.40;14.97;;;;;;;-143.84;91.47;45254.72;5111112;28;20777;-77
2022/12/03 01:43:54;;;;;;;21.23;12.73;;;;;;;-143.84;91.29;45292.81;5111429;28;20435;-77
2022/12/03 01:46:24;;;;;;;27.47;15.30;;;;;;;-143.84;91.70;45289.00;5111457;28;20438;-77
2022/12/03 01:48:53;;;;;;;25.57;15.20;;;;;;;-143.84;91.66;45283.28;5110985;28;21064;-77
2022/12/03 01:51:21;;;;;;;25.97;14.37;;;;;;;-143.84;91.64;45266.16;5111264;28;20426;-77
2022/12/03 01:53:48;;;;;;;26.10;14.80;;;;;;;-143.84;91.50;45309.94;5111147;28;20949;-77
2022/12/03 01:56:17;;;;;;;20.70;13.27;;;;;;;-143.84;91.67;45268.06;5111204;28;20874;-77
2022/12/03 01:58:46;;;;;;;23.60;15.17;;;;;;;-143.84;91.60;45300.44;5110951;28;20927;-77
2022/12/03 02:01:15;;;;;;;25.63;14.90;;;;;;;-143.84;91.61;45273.78;5110937;28;20451;-77
2022/12/03 02:03:43;;;;;;;26.10;14.90;;;;;;;-143.84;91.74;45289.00;5110818;28;20499;-77
2022/12/03 02:06:16;;;;;;;23.57;14.03;;;;;;;-143.84;91.77;45296.63;5110972;28;20438;-77
2022/12/03 02:08:43;;;;;;;24.87;14.00;;;;;;;-143.84;91.60;45260.44;5110996;28;20478;-76
2022/12/03 02:11:19;;;;;;;25.40;14.17;;;;;;;-143.84;91.39;45262.34;5110977;28;20423;-77
2022/12/03 02:13:52;;;;;;;21.97;13.70;;;;;;;-143.84;91.64;45279.47;5110612;28;20803;-77
2022/12/03 02:16:19;;;;;;;27.33;14.77;;;;;;;-143.84;91.58;45292.81;5110737;28;20439;-77
2022/12/03 02:18:46;;;;;;;22.10;13.10;;;;;;;-143.84;91.60;45294.72;5110411;28;20435;-77
2022/12/03 02:21:19;;;;;;;22.93;13.53;;;;;;;-143.84;91.91;45289.00;5111100;28;20570;-77
2022/12/03 02:23:58;;;;;;;25.37;14.07;;;;;;;-143.84;91.65;45245.19;5110648;28;20943;-77
2022/12/03 02:26:28;;;;;;;23.60;14.47;;;;;;;-143.84;91.92;45271.88;5111034;28;21342;-77
2022/12/03 02:28:56;;;;;;;28.10;14.87;;;;;;;-143.84;92.09;45290.91;5110713;28;20506;-77
2022/12/03 02:31:24;;;;;;;26.43;15.00;;;;;;;-143.84;92.20;45296.63;5110577;28;20435;-77
2022/12/03 02:33:51;;;;;;;19.60;12.17;;;;;;;-143.84;91.86;45296.63;5110842;28;20960;-77
2022/12/03 02:36:18;;;;;;;21.83;12.90;;;;;;;-143.84;91.87;45296.63;5110818;28;20427;-77
2022/12/03 02:38:48;;;;;;;23.80;14.30;;;;;;;-143.84;91.70;45287.09;5110205;28;20435;-77
2022/12/03 02:44:01;;;;;;;22.33;14.10;;;;;;;-143.84;91.37;45306.13;5109522;28;20434;-77
2022/12/03 02:46:29;;;;;;;24.07;14.30;;;;;;;-143.84;91.32;45252.81;5110811;28;20460;-77
2022/12/03 02:48:57;;;;;;;23.50;12.70;;;;;;;-143.84;91.46;45262.34;5112777;28;20482;-77
2022/12/03 02:51:24;;;;;;;21.50;13.00;;;;;;;-143.84;91.25;45296.63;5113849;28;20913;-77
2022/12/03 02:53:53;;;;;;;19.53;11.97;;;;;;;-143.84;91.05;45287.09;5114307;28;20439;-77
2022/12/03 02:56:26;;;;;;;22.70;12.50;;;;;;;-143.84;91.11;45311.84;5114317;28;20443;-77
2022/12/03 02:58:57;;;;;;;21.10;11.70;;;;;;;-143.84;91.32;45290.91;5113866;28;20970;-77
2022/12/03 03:01:26;;;;;;;20.63;13.17;;;;;;;-143.84;91.35;45289.00;5113732;28;20427;-77
2022/12/03 03:03:54;;;;;;;15.43;11.10;;;;;;;-143.84;91.14;45269.97;5113549;28;20867;-77
2022/12/03 03:06:22;;;;;;;17.63;11.93;;;;;;;-143.84;91.26;45290.91;5113918;28;20430;-77
2022/12/03 03:08:49;;;;;;;22.83;12.57;;;;;;;-143.84;91.38;45308.03;5113854;28;20482;-78
2022/12/03 03:11:16;;;;;;;21.63;11.80;;;;;;;-143.84;91.27;45269.97;5113590;28;20439;-77
2022/12/03 03:13:44;;;;;;;20.90;11.80;;;;;;;-143.84;91.32;45309.94;5114115;28;20559;-77
2022/12/03 03:16:11;;;;;;;18.00;10.83;;;;;;;-143.84;90.90;45269.97;5113557;28;21001;-77
2022/12/03 03:18:40;;;;;;;19.80;11.37;;;;;;;-143.84;91.16;45289.00;5113756;28;20488;-77
2022/12/03 03:21:08;;;;;;;19.37;11.83;;;;;;;-143.84;90.75;45290.91;5113442;28;20447;-78
2022/12/03 03:23:35;;;;;;;20.93;11.80;;;;;;;-143.84;90.92;45275.66;5113738;28;20952;-78
2022/12/03 03:26:05;;;;;;;23.87;12.33;;;;;;;-143.84;90.84;45266.16;5113694;28;20482;-77
2022/12/03 03:28:34;;;;;;;20.57;11.67;;;;;;;-143.84;90.47;45281.38;5113621;28;20471;-77
2022/12/03 03:31:05;;;;;;;20.63;11.13;;;;;;;-143.84;90.51;45304.25;5113644;28;20915;-77
2022/12/03 03:33:33;;;;;;;22.20;13.03;;;;;;;-143.84;90.26;45290.91;5113476;28;20891;-77
2022/12/03 03:36:03;;;;;;;19.83;10.70;;;;;;;-143.84;90.36;45294.72;5113255;28;20836;-77
2022/12/03 03:38:31;;;;;;;21.70;12.80;;;;;;;-143.84;90.35;45289.00;5113144;28;20442;-77
2022/12/03 03:41:00;;;;;;;25.70;14.20;;;;;;;-143.84;90.37;45260.44;5113553;28;20511;-77
2022/12/03 03:43:29;;;;;;;21.07;12.70;;;;;;;-143.84;90.39;45283.28;5113145;28;20496;-77
2022/12/03 03:45:57;;;;;;;27.37;15.50;;;;;;;-143.84;90.10;45289.00;5113279;28;20496;-77
2022/12/03 03:48:24;;;;;;;24.17;14.97;;;;;;;-143.84;90.07;45296.63;5112858;28;20523;-77
2022/12/03 03:50:52;;;;;;;18.87;12.40;;;;;;;-143.84;89.99;45285.19;5113114;28;20443;-77
2022/12/03 03:53:21;;;;;;;21.50;12.53;;;;;;;-143.84;90.15;45277.56;5112987;28;20788;-77
2022/12/03 03:55:49;;;;;;;15.30;11.03;;;;;;;-143.84;90.02;45289.00;5112655;28;20456;-76
2022/12/03 03:58:17;;;;;;;22.43;13.10;;;;;;;-143.84;89.94;45298.53;5112380;28;20504;-77
2022/12/03 04:00:45;;;;;;;19.40;12.60;;;;;;;-143.84;90.09;45296.63;5112728;28;21277;-77
2022/12/03 04:03:13;;;;;;;18.70;12.57;;;;;;;-143.84;89.87;45271.88;5112758;28;20439;-77
2022/12/03 04:05:41;;;;;;;21.93;12.63;;;;;;;-143.84;89.73;45281.38;5112620;28;20439;-77
2022/12/03 04:08:08;;;;;;;15.20;11.03;;;;;;;-143.84;89.75;45281.38;5112944;28;20501;-77
2022/12/03 04:13:20;;;;;;;15.63;9.97;;;;;;;-143.84;89.75;45325.19;5112941;28;20639;-77
2022/12/03 04:15:48;;;;;;;14.83;9.93;;;;;;;-143.84;89.90;45317.56;5112318;28;20469;-77
2022/12/03 04:23:40;;;;;;;14.73;9.63;;;;;;;-143.84;89.97;45283.28;5111035;28;20964;-77
2022/12/03 04:28:53;;;;;;;13.03;8.67;;;;;;;-143.84;89.50;45308.03;5111804;28;20466;-77
2022/12/03 04:36:49;;;;;;;20.30;11.20;;;;;;;-143.84;89.86;45277.56;5112262;28;20507;-77
2022/12/03 04:39:16;;;;;;;21.03;10.93;;;;;;;-143.84;90.11;45269.97;5112223;28;20494;-77
2022/12/03 04:41:45;;;;;;;20.87;12.27;;;;;;;-143.84;89.87;45296.63;5111893;28;20443;-77
2022/12/03 04:46:56;;;;;;;14.50;9.00;;;;;;;-143.84;90.16;45287.09;5112447;28;20468;-77
2022/12/03 04:49:23;;;;;;;13.43;9.10;;;;;;;-143.84;90.13;45283.28;5111823;28;20486;-77
2022/12/03 04:51:50;;;;;;;11.10;7.87;;;;;;;-143.84;89.89;45281.38;5111772;28;20813;-77
2022/12/03 04:54:18;;;;;;;12.80;9.07;;;;;;;-143.84;89.60;45279.47;5111783;28;20448;-77
2022/12/03 04:56:46;;;;;;;11.90;8.20;;;;;;;-143.84;89.63;45281.38;5111863;28;20451;-77
2022/12/03 04:59:14;;;;;;;15.47;8.20;;;;;;;-143.84;89.72;45273.78;5111736;28;20444;-77
2022/12/03 05:01:41;;;;;;;16.40;9.83;;;;;;;-143.84;89.78;45304.25;5111492;28;20565;-77
2022/12/03 05:04:08;;;;;;;11.17;7.50;;;;;;;-143.84;89.74;45264.25;5111557;28;20853;-77
2022/12/03 05:06:36;;;;;;;10.63;7.60;;;;;;;-143.84;89.66;45269.97;5111331;28;20441;-77
2022/12/03 05:09:03;;;;;;;13.20;8.43;;;;;;;-143.84;89.87;45268.06;5111068;28;20478;-77
2022/12/03 05:11:31;;;;;;;11.53;8.30;;;;;;;-143.84;89.79;45283.28;5110532;28;20801;-77
2022/12/03 05:13:59;;;;;;;14.70;8.80;;;;;;;-143.84;89.84;45281.38;5111238;28;20883;-77
2022/12/03 05:16:26;;;;;;;15.67;10.00;;;;;;;-143.84;89.88;45292.81;5111680;28;20455;-77
2022/12/03 05:18:53;;;;;;;16.73;9.97;;;;;;;-143.84;90.13;45327.09;5111022;28;20435;-77
2022/12/03 05:21:21;;;;;;;17.20;10.10;;;;;;;-143.84;90.20;45296.63;5111719;28;20431;-77
2022/12/03 05:23:48;;;;;;;21.73;11.90;;;;;;;-143.84;89.81;45321.38;5111375;28;20438;-77
2022/12/03 05:26:15;;;;;;;16.00;10.30;;;;;;;-143.84;90.32;45292.81;5111278;28;20487;-77
2022/12/03 05:28:42;;;;;;;16.27;9.97;;;;;;;-143.84;90.06;45281.38;5111353;28;20467;-77
2022/12/03 05:31:11;;;;;;;19.40;10.70;;;;;;;-143.84;90.09;45296.63;5111381;28;20894;-77
2022/12/03 05:33:38;;;;;;;15.17;10.00;;;;;;;-143.84;90.12;45298.53;5111292;28;20484;-77
2022/12/03 05:36:05;;;;;;;20.60;11.93;;;;;;;-143.84;90.38;45275.66;5111241;28;20488;-77
2022/12/03 05:38:33;;;;;;;22.00;11.70;;;;;;;-143.84;90.17;45292.81;5110973;28;20435;-77
2022/12/03 05:41:00;;;;;;;17.40;10.90;;;;;;;-143.84;89.94;45279.47;5111234;28;20458;-77
2022/12/03 05:43:26;;;;;;;18.17;12.23;;;;;;;-143.84;89.91;45292.81;5111072;28;20468;-77
2022/12/03 05:45:53;;;;;;;19.13;11.93;;;;;;;-143.84;90.24;45311.84;5111137;28;20475;-77
2022/12/03 05:48:22;;;;;;;24.20;13.77;;;;;;;-143.84;90.58;45271.88;5110953;28;20482;-77
2022/12/03 05:50:49;;;;;;;18.20;12.10;;;;;;;-143.84;90.81;45266.16;5110747;28;20439;-78
2022/12/03 05:53:17;;;;;;;23.80;12.87;;;;;;;-143.84;90.86;45260.44;5111329;28;20427;-76
2022/12/03 05:55:44;;;;;;;19.57;12.03;;;;;;;-143.84;90.48;45281.38;5111574;28;20431;-73
2022/12/03 05:58:11;;;;;;;21.40;13.73;;;;;;;-143.84;90.61;45309.94;5111198;28;20430;-78
2022/12/03 06:00:39;;;;;;;26.30;13.27;;;;;;;-143.84;90.49;45292.81;5110812;28;20793;-76
2022/12/03 06:03:07;;;;;;;25.43;14.50;;;;;;;-143.84;90.16;45271.88;5110615;28;20842;-75
2022/12/03 06:05:35;;;;;;;20.60;12.83;;;;;;;-143.84;90.25;45287.09;5111037;28;20987;-75
2022/12/03 06:08:03;;;;;;;21.03;12.70;;;;;;;-143.84;90.09;45275.66;5110997;28;20842;-75
2022/12/03 06:10:30;;;;;;;30.07;13.27;;;;;;;-143.84;90.09;45241.41;5111040;28;20427;-75
2022/12/03 06:12:57;;;;;;;23.97;14.60;;;;;;;-143.84;90.29;45292.81;5111487;28;20447;-76
2022/12/03 06:15:25;;;;;;;24.10;13.70;;;;;;;-143.84;89.86;45271.88;5110997;28;20425;-76
2022/12/03 06:17:52;;;;;;;23.37;13.10;;;;;;;-143.84;90.05;45277.56;5111447;28;20925;-76
2022/12/03 06:20:20;;;;;;;22.93;13.63;;;;;;;-143.84;90.21;45260.44;5111232;28;20434;-75
2022/12/03 06:22:52;;;;;;;22.13;13.30;;;;;;;-143.84;90.18;45289.00;5113604;28;20431;-75
2022/12/03 06:25:19;;;;;;;22.97;11.90;;;;;;;-143.84;90.15;45294.72;5113565;28;20463;-73
2022/12/03 06:27:46;;;;;;;30.23;15.40;;;;;;;-143.84;90.34;45268.06;5113769;28;20524;-74
2022/12/03 06:30:14;;;;;;;24.23;14.10;;;;;;;-143.84;90.35;45302.34;5113687;28;20442;-75
2022/12/03 06:32:41;;;;;;;24.07;13.40;;;;;;;-143.84;90.14;45289.00;5113679;28;20560;-73
2022/12/03 06:35:09;;;;;;;26.43;13.70;;;;;;;-143.84;90.13;45289.00;5114070;28;20488;-72
2022/12/03 06:37:36;;;;;;;23.00;13.27;;;;;;;-143.84;89.75;45289.00;5114014;28;20435;-73
2022/12/03 06:40:06;;;;;;;23.87;13.83;;;;;;;-143.84;89.26;45268.06;5113932;28;20996;-73
2022/12/03 06:42:33;;;;;;;25.00;13.90;;;;;;;-143.84;89.13;45287.09;5113045;28;20435;-73
2022/12/03 06:45:00;;;;;;;22.27;12.00;;;;;;;-143.84;88.80;45294.72;5113048;28;20435;-76
2022/12/03 06:47:27;;;;;;;21.13;11.60;;;;;;;-143.84;88.39;45298.53;5113658;28;20439;-75
2022/12/03 06:49:54;;;;;;;22.80;12.77;;;;;;;-143.84;88.33;45290.91;5113509;28;20471;-76
2022/12/03 06:52:22;;;;;;;20.40;12.43;;;;;;;-143.84;88.10;45283.28;5113572;28;20933;-75
2022/12/03 06:54:50;;;;;;;24.30;12.77;;;;;;;-143.84;88.02;45254.72;5112973;28;20439;-75
2022/12/03 06:57:18;;;;;;;24.30;12.80;;;;;;;-143.84;87.77;45271.88;5113762;28;20423;-76
2022/12/03 06:59:45;;;;;;;22.07;13.80;;;;;;;-143.84;87.62;45281.38;5112859;28;20431;-75
2022/12/03 07:02:12;;;;;;;33.00;14.67;;;;;;;-143.84;87.96;45281.38;5113197;28;20441;-75
2022/12/03 07:04:39;;;;;;;22.93;13.10;;;;;;;-143.84;87.94;45300.44;5112854;28;20431;-75
2022/12/03 07:07:07;;;;;;;23.63;13.30;;;;;;;-143.84;88.10;45309.94;5113254;28;20808;-75
2022/12/03 07:09:34;;;;;;;20.43;12.47;;;;;;;-143.84;87.94;45266.16;5112978;28;20470;-75
2022/12/03 07:12:01;;;;;;;26.67;13.53;;;;;;;-143.84;88.02;45262.34;5112672;28;20439;-75
2022/12/03 07:14:29;;;;;;;23.63;12.97;;;;;;;-143.84;87.52;45271.88;5111976;28;20436;-75
2022/12/03 07:16:57;;;;;;;20.20;12.73;;;;;;;-143.84;87.33;45281.38;5112964;28;20443;-75
2022/12/03 07:19:24;;;;;;;22.77;13.10;;;;;;;-143.84;87.69;45298.53;5113102;28;20836;-75
2022/12/03 07:21:51;;;;;;;26.40;13.10;;;;;;;-143.84;87.65;45258.53;5112345;28;20438;-75
2022/12/03 07:24:18;;;;;;;27.00;12.80;;;;;;;-143.84;87.54;45273.78;5112081;28;20439;-77
2022/12/03 07:26:45;;;;;;;21.17;12.70;;;;;;;-143.84;87.71;45252.81;5112058;28;20502;-76
2022/12/03 07:29:13;;;;;;;25.27;13.93;;;;;;;-143.84;87.07;45302.34;5111726;28;20466;-76
2022/12/03 07:31:41;;;;;;;24.03;13.20;;;;;;;-143.84;87.31;45292.81;5113085;28;20502;-77
2022/12/03 07:34:08;;;;;;;21.60;12.33;;;;;;;-143.84;87.28;45289.00;5112236;28;20941;-77
2022/12/03 07:36:35;;;;;;;21.80;12.90;;;;;;;-143.84;86.87;45256.63;5112625;28;20443;-76
2022/12/03 07:39:03;;;;;;;21.80;11.53;;;;;;;-143.84;86.39;45269.97;5112770;28;20452;-76
2022/12/03 07:41:30;;;;;;;20.60;12.13;;;;;;;-143.84;86.61;45266.16;5112174;28;20428;-76
2022/12/03 07:43:57;;;;;;;20.97;11.47;;;;;;;-143.84;86.11;45266.16;5111974;28;20967;-76
2022/12/03 07:46:24;;;;;;;17.57;11.23;;;;;;;-143.84;85.82;45306.13;5112165;28;20511;-76
2022/12/03 07:48:53;;;;;;;19.93;11.93;;;;;;;-143.84;85.57;45309.94;5111844;28;20466;-76
2022/12/03 07:51:21;;;;;;;19.43;11.97;;;;;;;-143.84;85.34;45287.09;5111930;28;20439;-75
2022/12/03 07:53:48;;;;;;;19.13;11.43;;;;;;;-143.84;85.06;45273.78;5112244;28;20903;-75
2022/12/03 07:56:15;;;;;;;20.60;11.40;;;;;;;-143.84;85.37;45252.81;5111840;28;20637;-75
2022/12/03 07:58:42;;;;;;;19.07;10.87;;;;;;;-143.84;85.17;45289.00;5112623;28;20443;-77
2022/12/03 08:01:10;;;;;;;21.33;13.43;;;;;;;-143.84;85.56;45298.53;5112717;28;20439;-76
2022/12/03 08:03:38;;;;;;;20.73;12.60;;;;;;;-143.84;85.39;45273.78;5111988;28;21253;-76
2022/12/03 08:06:07;;;;;;;22.40;12.20;;;;;;;-143.84;85.08;45268.06;5111843;28;21342;-78
2022/12/03 08:08:34;;;;;;;18.00;11.40;;;;;;;-143.84;85.74;45306.13;5112269;28;21006;-76
2022/12/03 08:11:02;;;;;;;22.07;11.33;;;;;;;-143.84;85.00;45281.38;5111547;28;20427;-76
2022/12/03 08:13:29;;;;;;;18.93;11.30;;;;;;;-143.84;84.76;45275.66;5107598;28;20491;-76
2022/12/03 08:16:00;;;;;;;17.07;10.87;;;;;;;-143.84;84.33;45275.66;5109259;28;20451;-77
2022/12/03 08:18:28;;;;;;;18.93;11.50;;;;;;;-143.84;84.60;45289.00;5111899;28;20478;-76
2022/12/03 08:20:55;;;;;;;18.83;10.90;;;;;;;-143.84;83.21;45262.34;5111808;28;20451;-78
2022/12/03 08:23:26;;;;;;;19.80;10.80;;;;;;;-143.84;83.38;45279.47;5110914;28;20478;-75
2022/12/03 08:25:53;;;;;;;13.20;10.10;;;;;;;-143.84;83.15;45281.38;5110043;28;20963;-77
2022/12/03 08:28:22;;;;;;;17.80;10.57;;;;;;;-143.84;82.78;45302.34;5111008;28;21028;-76
2022/12/03 08:31:00;;;;;;;16.17;11.27;;;;;;;-143.84;82.53;45262.34;5111551;28;20780;-76
2022/12/03 08:33:29;;;;;;;19.33;12.07;;;;;;;-143.84;82.28;45268.06;5111622;28;20446;-76
2022/12/03 08:35:57;;;;;;;13.70;9.13;;;;;;;-143.84;82.48;45269.97;5097908;28;20865;-76
2022/12/03 08:38:25;;;;;;;19.67;10.90;;;;;;;-143.84;81.97;45294.72;5105951;28;20448;-79
2022/12/03 08:40:54;;;;;;;19.50;11.57;;;;;;;-143.84;81.87;45266.16;5108093;28;20493;-76
2022/12/03 08:43:23;;;;;;;21.27;11.23;;;;;;;-143.84;81.75;45260.44;5107542;28;20476;-76
2022/12/03 08:45:51;;;;;;;18.60;11.30;;;;;;;-143.84;81.52;45258.53;5110113;28;20496;-76
2022/12/03 08:48:32;;;;;;;16.20;10.80;;;;;;;-143.84;81.27;45285.19;5106515;28;20926;-76
2022/12/03 08:51:03;;;;;;;19.13;10.77;;;;;;;-143.84;81.10;45249.00;5111788;28;20446;-74
2022/12/03 08:53:47;;;;;;;18.33;11.60;;;;;;;-143.84;81.27;45281.38;5104026;28;20453;-76
2022/12/03 08:56:21;;;;;;;16.37;11.07;;;;;;;-143.84;81.20;45262.34;5103806;28;21003;-75
2022/12/03 08:58:52;;;;;;;16.67;10.00;;;;;;;-143.84;81.07;45273.78;5099131;28;21041;-77
2022/12/03 09:01:30;;;;;;;24.40;10.57;;;;;;;-143.84;80.84;45289.00;5110948;28;20778;-75
2022/12/03 09:04:02;;;;;;;16.50;11.00;;;;;;;-143.84;80.52;45266.16;5105107;28;20464;-75
2022/12/03 09:06:30;;;;;;;20.93;10.60;;;;;;;-143.84;80.78;45269.97;5110890;28;20500;-76
2022/12/03 09:08:58;;;;;;;17.00;10.27;;;;;;;-143.84;80.28;45245.19;5103669;28;20536;-78
2022/12/03 09:11:25;;;;;;;18.57;11.07;;;;;;;-143.84;80.51;45249.00;5111398;28;20957;-76
2022/12/03 09:13:52;;;;;;;20.13;10.80;;;;;;;-143.84;79.54;45277.56;5110337;28;20500;-78
2022/12/03 09:16:19;;;;;;;18.37;11.20;;;;;;;-143.84;79.91;45273.78;5111201;28;20444;-75
2022/12/03 09:18:46;;;;;;;19.83;11.63;;;;;;;-143.84;80.02;45254.72;5106796;28;20463;-75
2022/12/03 09:21:14;;;;;;;19.90;12.03;;;;;;;-143.84;80.07;45266.16;5110367;28;21008;-76
2022/12/03 09:23:41;;;;;;;21.23;10.50;;;;;;;-143.84;79.22;45245.19;5110249;28;20498;-76
2022/12/03 09:26:09;;;;;;;21.30;11.07;;;;;;;-143.84;78.28;45252.81;5107652;28;20479;-76
2022/12/03 09:28:36;;;;;;;20.37;11.07;;;;;;;-143.84;78.65;45262.34;5101217;28;20444;-76
2022/12/03 09:31:04;;;;;;;19.43;10.53;;;;;;;-143.84;78.55;45273.78;5104045;28;20494;-75
2022/12/03 09:33:31;;;;;;;22.47;13.73;;;;;;;-143.84;79.06;45273.78;5106217;28;20449;-76
2022/12/03 09:35:59;;;;;;;20.33;12.70;;;;;;;-143.84;78.66;45243.31;5106354;28;20441;-76
2022/12/03 09:38:26;;;;;;;20.30;11.60;;;;;;;-143.84;78.82;45268.06;5102352;28;20543;-77
2022/12/03 09:40:54;;;;;;;21.57;12.10;;;;;;;-143.84;78.98;45239.50;5107288;28;20453;-76
2022/12/03 09:43:23;;;;;;;16.37;11.10;;;;;;;-143.84;78.88;45264.25;5107795;28;20437;-77
2022/12/03 09:45:50;;;;;;;13.73;9.20;;;;;;;-143.84;77.60;45254.72;5110221;28;20452;-75
2022/12/03 09:48:19;;;;;;;16.10;10.33;;;;;;;-143.84;77.14;45254.72;5109137;28;20455;-76
2022/12/03 09:50:47;;;;;;;17.93;10.80;;;;;;;-143.84;76.56;45258.53;5104091;28;20476;-75
2022/12/03 09:53:17;;;;;;;18.07;11.53;;;;;;;-143.84;75.24;45285.19;5106515;28;20448;-75
2022/12/03 09:55:45;;;;;;;16.70;10.90;;;;;;;-143.84;75.74;45262.34;5110022;28;20442;-77
2022/12/03 09:58:14;;;;;;;16.33;10.30;;;;;;;-143.84;76.63;45268.06;5109999;28;20446;-76
2022/12/03 10:00:47;;;;;;;17.00;10.93;;;;;;;-143.84;75.77;45266.16;5111882;28;20498;-77
2022/12/03 10:03:16;;;;;;;15.73;10.60;;;;;;;-143.84;75.72;45264.25;5111222;28;20461;-77
2022/12/03 10:05:44;;;;;;;17.23;11.13;;;;;;;-143.84;76.15;45258.53;5114816;28;20452;-75
2022/12/03 10:08:16;;;;;;;16.43;10.17;;;;;;;-143.84;76.14;45260.44;5114674;28;20449;-75
2022/12/03 10:10:44;;;;;;;12.53;9.10;;;;;;;-143.84;76.31;45269.97;5114608;28;21017;-76
2022/12/03 10:13:20;;;;;;;15.10;10.37;;;;;;;-143.84;75.58;45258.53;5112442;28;20449;-76
2022/12/03 10:15:48;;;;;;;21.13;12.63;;;;;;;-143.84;75.29;45275.66;5114714;28;20441;-76
2022/12/03 10:18:19;;;;;;;22.57;14.63;;;;;;;-143.84;74.87;45256.63;5115164;28;20457;-76
2022/12/03 10:20:46;;;;;;;22.00;12.90;;;;;;;-143.84;74.93;45285.19;5115033;28;20955;-76
2022/12/03 10:23:21;;;;;;;22.47;13.77;;;;;;;-143.84;75.38;45262.34;5114951;28;20461;-76
2022/12/03 10:25:54;;;;;;;23.60;13.93;;;;;;;-143.84;75.14;45256.63;5114878;28;20595;-77
2022/12/03 10:28:29;;;;;;;21.27;12.67;;;;;;;-143.84;74.04;45258.53;5106989;28;20448;-76
2022/12/03 10:30:59;;;;;;;22.80;12.50;;;;;;;-143.84;73.84;45273.78;5115086;28;20461;-77
2022/12/03 10:33:30;;;;;;;22.63;14.13;;;;;;;-143.84;75.18;45268.06;5114633;28;20453;-76
2022/12/03 10:35:58;;;;;;;22.33;14.27;;;;;;;-143.84;75.34;45285.19;5112321;28;20502;-77
2022/12/03 10:38:25;;;;;;;29.50;17.27;;;;;;;-143.84;74.62;45243.31;5112080;28;20442;-77
2022/12/03 10:40:52;;;;;;;29.80;14.50;;;;;;;-143.84;74.05;45239.50;5112196;28;20437;-77
2022/12/03 10:43:24;;;;;;;23.37;12.97;;;;;;;-143.84;73.83;45224.25;5111810;28;20877;-77
2022/12/03 10:46:12;;;;;;;21.87;14.40;;;;;;;-143.84;73.47;45235.69;5114478;28;20485;-77
2022/12/03 10:48:40;;;;;;;22.60;15.03;;;;;;;-143.84;73.83;45250.91;5107134;28;20566;-77
2022/12/03 10:51:14;;;;;;;22.33;13.73;;;;;;;-143.84;74.15;45266.16;5109260;28;20492;-77
2022/12/03 10:53:42;;;;;;;23.63;15.37;;;;;;;-143.84;73.87;45250.91;5110046;28;20507;-77
2022/12/03 10:56:21;;;;;;;25.80;13.87;;;;;;;-143.84;74.36;45252.81;5113135;28;20462;-77
2022/12/03 10:58:48;;;;;;;23.87;13.07;;;;;;;-143.84;74.16;45258.53;5112184;28;20445;-77
2022/12/03 11:01:19;;;;;;;25.90;14.40;;;;;;;-143.84;74.59;45269.97;5107291;28;20446;-76
2022/12/03 11:03:46;;;;;;;20.30;12.13;;;;;;;-143.84;75.08;45271.88;5109924;28;20454;-76
2022/12/03 11:06:16;;;;;;;19.60;12.70;;;;;;;-143.84;74.66;45258.53;5113207;28;20437;-75
2022/12/03 11:08:45;;;;;;;28.83;14.20;;;;;;;-143.84;75.69;45247.09;5111781;28;20457;-74
2022/12/03 11:11:19;;;;;;;21.47;13.00;;;;;;;-143.84;75.53;45247.09;5112002;28;20477;-76
2022/12/03 11:13:52;;;;;;;24.23;13.50;;;;;;;-143.84;75.48;45279.47;5106821;28;20498;-76
2022/12/03 11:17:01;;;;;;;21.10;14.07;;;;;;;-143.84;76.18;45252.81;5113256;28;20552;-76
2022/12/03 11:19:45;;;;;;;21.37;12.60;;;;;;;-143.84;76.85;45271.88;5090933;28;20475;-79
2022/12/03 11:22:28;;;;;;;24.10;14.63;;;;;;;-143.84;77.00;45241.41;5109097;28;20454;-76
2022/12/03 11:25:49;;;;;;;24.87;12.80;;;;;;;-143.84;76.86;45247.09;5112578;28;20457;-76
2022/12/03 11:28:34;;;;;;;26.70;13.70;;;;;;;-143.84;76.10;45254.72;5108912;28;20518;-76
2022/12/03 11:31:08;;;;;;;28.70;15.80;;;;;;;-143.84;76.14;45264.25;5112256;28;20513;-77
2022/12/03 11:33:37;;;;;;;26.00;16.07;;;;;;;-143.84;76.43;45268.06;5112229;28;20532;-77